sensor_id;sensor_type;location;lat;lon;timestamp;P1;durP1;ratioP1;P2;durP2;ratioP2
5904;SDS011;2978;42.012;24.880;2023-07-29T00:00:44;3.60;;;2.90;;
5904;SDS011;2978;42.012;24.880;2023-07-29T00:03:09;4.80;;;3.20;;
5904;SDS011;2978;42.012;24.880;2023-07-29T00:05:36;5.40;;;3.30;;
5904;SDS011;2978;42.012;24.880;2023-07-29T00:08:02;9.87;;;3.10;;
5904;SDS011;2978;42.012;24.880;2023-07-29T00:10:28;4.40;;;3.17;;
5904;SDS011;2978;42.012;24.880;2023-07-29T00:12:54;4.00;;;2.50;;
5904;SDS011;2978;42.012;24.880;2023-07-29T00:15:19;5.27;;;2.53;;
5904;SDS011;2978;42.012;24.880;2023-07-29T00:17:45;4.30;;;3.10;;
5904;SDS011;2978;42.012;24.880;2023-07-29T00:20:10;3.80;;;3.03;;
5904;SDS011;2978;42.012;24.880;2023-07-29T00:22:36;21.53;;;3.70;;
5904;SDS011;2978;42.012;24.880;2023-07-29T00:25:01;3.60;;;3.00;;
5904;SDS011;2978;42.012;24.880;2023-07-29T00:27:27;6.93;;;3.63;;
5904;SDS011;2978;42.012;24.880;2023-07-29T00:29:52;6.30;;;3.43;;
5904;SDS011;2978;42.012;24.880;2023-07-29T00:32:18;3.90;;;3.10;;
5904;SDS011;2978;42.012;24.880;2023-07-29T00:34:43;8.00;;;3.13;;
5904;SDS011;2978;42.012;24.880;2023-07-29T00:37:09;9.23;;;3.20;;
5904;SDS011;2978;42.012;24.880;2023-07-29T00:39:35;6.60;;;2.80;;
5904;SDS011;2978;42.012;24.880;2023-07-29T00:42:02;5.50;;;3.67;;
5904;SDS011;2978;42.012;24.880;2023-07-29T00:44:27;4.60;;;3.03;;
5904;SDS011;2978;42.012;24.880;2023-07-29T00:46:53;10.60;;;3.17;;
5904;SDS011;2978;42.012;24.880;2023-07-29T00:49:19;4.17;;;3.40;;
5904;SDS011;2978;42.012;24.880;2023-07-29T00:51:45;7.37;;;3.10;;
5904;SDS011;2978;42.012;24.880;2023-07-29T00:54:11;4.80;;;3.63;;
5904;SDS011;2978;42.012;24.880;2023-07-29T00:56:37;4.73;;;2.77;;
5904;SDS011;2978;42.012;24.880;2023-07-29T00:59:03;4.10;;;2.93;;
5904;SDS011;2978;42.012;24.880;2023-07-29T01:01:29;4.50;;;3.07;;
5904;SDS011;2978;42.012;24.880;2023-07-29T01:03:55;3.60;;;2.87;;
5904;SDS011;2978;42.012;24.880;2023-07-29T01:06:40;5.30;;;3.50;;
5904;SDS011;2978;42.012;24.880;2023-07-29T01:12:12;3.97;;;2.93;;
5904;SDS011;2978;42.012;24.880;2023-07-29T01:14:41;3.77;;;2.83;;
5904;SDS011;2978;42.012;24.880;2023-07-29T01:17:22;4.30;;;3.33;;
5904;SDS011;2978;42.012;24.880;2023-07-29T01:19:55;13.43;;;3.17;;
5904;SDS011;2978;42.012;24.880;2023-07-29T01:22:22;5.83;;;3.43;;
5904;SDS011;2978;42.012;24.880;2023-07-29T01:24:49;4.80;;;3.00;;
5904;SDS011;2978;42.012;24.880;2023-07-29T01:27:14;4.17;;;3.23;;
5904;SDS011;2978;42.012;24.880;2023-07-29T01:29:39;4.83;;;3.03;;
5904;SDS011;2978;42.012;24.880;2023-07-29T01:32:07;3.47;;;3.10;;
5904;SDS011;2978;42.012;24.880;2023-07-29T01:34:43;4.10;;;3.60;;
5904;SDS011;2978;42.012;24.880;2023-07-29T01:37:15;4.67;;;3.10;;
5904;SDS011;2978;42.012;24.880;2023-07-29T01:39:46;6.90;;;3.30;;
5904;SDS011;2978;42.012;24.880;2023-07-29T01:42:13;4.30;;;3.23;;
5904;SDS011;2978;42.012;24.880;2023-07-29T01:44:38;4.50;;;3.50;;
5904;SDS011;2978;42.012;24.880;2023-07-29T01:47:04;9.93;;;3.13;;
5904;SDS011;2978;42.012;24.880;2023-07-29T01:49:30;16.83;;;2.93;;
5904;SDS011;2978;42.012;24.880;2023-07-29T01:51:55;6.63;;;4.13;;
5904;SDS011;2978;42.012;24.880;2023-07-29T01:54:21;4.53;;;3.20;;
5904;SDS011;2978;42.012;24.880;2023-07-29T01:56:46;5.73;;;3.60;;
5904;SDS011;2978;42.012;24.880;2023-07-29T01:59:12;3.37;;;3.07;;
5904;SDS011;2978;42.012;24.880;2023-07-29T02:01:38;6.00;;;3.40;;
5904;SDS011;2978;42.012;24.880;2023-07-29T02:04:04;5.10;;;3.40;;
5904;SDS011;2978;42.012;24.880;2023-07-29T02:06:29;5.57;;;3.23;;
5904;SDS011;2978;42.012;24.880;2023-07-29T02:08:54;4.30;;;3.20;;
5904;SDS011;2978;42.012;24.880;2023-07-29T02:11:20;6.93;;;3.53;;
5904;SDS011;2978;42.012;24.880;2023-07-29T02:13:52;4.83;;;3.00;;
5904;SDS011;2978;42.012;24.880;2023-07-29T02:16:17;4.07;;;3.00;;
5904;SDS011;2978;42.012;24.880;2023-07-29T02:18:43;5.00;;;3.40;;
5904;SDS011;2978;42.012;24.880;2023-07-29T02:21:08;7.50;;;4.30;;
5904;SDS011;2978;42.012;24.880;2023-07-29T02:23:33;9.63;;;3.73;;
5904;SDS011;2978;42.012;24.880;2023-07-29T02:25:59;4.70;;;3.03;;
5904;SDS011;2978;42.012;24.880;2023-07-29T02:28:24;6.77;;;3.80;;
5904;SDS011;2978;42.012;24.880;2023-07-29T02:30:54;5.30;;;3.07;;
5904;SDS011;2978;42.012;24.880;2023-07-29T02:33:35;5.97;;;2.97;;
5904;SDS011;2978;42.012;24.880;2023-07-29T02:36:04;3.57;;;3.27;;
5904;SDS011;2978;42.012;24.880;2023-07-29T02:38:30;9.23;;;2.93;;
5904;SDS011;2978;42.012;24.880;2023-07-29T02:40:55;7.83;;;3.33;;
5904;SDS011;2978;42.012;24.880;2023-07-29T02:43:20;8.90;;;3.57;;
5904;SDS011;2978;42.012;24.880;2023-07-29T02:45:46;4.43;;;3.00;;
5904;SDS011;2978;42.012;24.880;2023-07-29T02:48:11;3.80;;;3.07;;
5904;SDS011;2978;42.012;24.880;2023-07-29T02:50:37;10.17;;;4.50;;
5904;SDS011;2978;42.012;24.880;2023-07-29T02:53:02;4.00;;;3.53;;
5904;SDS011;2978;42.012;24.880;2023-07-29T02:55:28;6.47;;;3.20;;
5904;SDS011;2978;42.012;24.880;2023-07-29T02:57:53;4.33;;;3.13;;
5904;SDS011;2978;42.012;24.880;2023-07-29T03:00:19;5.50;;;3.33;;
5904;SDS011;2978;42.012;24.880;2023-07-29T03:02:44;5.70;;;3.20;;
5904;SDS011;2978;42.012;24.880;2023-07-29T03:05:10;5.10;;;3.50;;
5904;SDS011;2978;42.012;24.880;2023-07-29T03:07:35;6.13;;;3.20;;
5904;SDS011;2978;42.012;24.880;2023-07-29T03:10:00;7.23;;;3.47;;
5904;SDS011;2978;42.012;24.880;2023-07-29T03:12:26;6.20;;;3.00;;
5904;SDS011;2978;42.012;24.880;2023-07-29T03:14:52;8.23;;;2.97;;
5904;SDS011;2978;42.012;24.880;2023-07-29T03:17:17;6.33;;;3.27;;
5904;SDS011;2978;42.012;24.880;2023-07-29T03:19:43;5.73;;;3.90;;
5904;SDS011;2978;42.012;24.880;2023-07-29T03:22:08;4.77;;;3.33;;
5904;SDS011;2978;42.012;24.880;2023-07-29T03:24:33;3.50;;;2.93;;
5904;SDS011;2978;42.012;24.880;2023-07-29T03:26:59;5.07;;;3.47;;
5904;SDS011;2978;42.012;24.880;2023-07-29T03:29:24;4.37;;;3.37;;
5904;SDS011;2978;42.012;24.880;2023-07-29T03:31:49;7.10;;;3.33;;
5904;SDS011;2978;42.012;24.880;2023-07-29T03:34:15;4.30;;;3.60;;
5904;SDS011;2978;42.012;24.880;2023-07-29T03:36:40;5.53;;;3.77;;
5904;SDS011;2978;42.012;24.880;2023-07-29T03:39:06;4.10;;;3.20;;
5904;SDS011;2978;42.012;24.880;2023-07-29T03:41:32;4.90;;;2.67;;
5904;SDS011;2978;42.012;24.880;2023-07-29T03:43:58;3.60;;;2.90;;
5904;SDS011;2978;42.012;24.880;2023-07-29T03:46:24;4.37;;;3.30;;
5904;SDS011;2978;42.012;24.880;2023-07-29T03:48:49;4.90;;;3.30;;
5904;SDS011;2978;42.012;24.880;2023-07-29T03:51:15;5.63;;;3.07;;
5904;SDS011;2978;42.012;24.880;2023-07-29T03:53:40;5.27;;;3.63;;
5904;SDS011;2978;42.012;24.880;2023-07-29T03:56:09;6.73;;;3.07;;
5904;SDS011;2978;42.012;24.880;2023-07-29T03:58:34;4.53;;;2.93;;
5904;SDS011;2978;42.012;24.880;2023-07-29T04:00:59;3.80;;;3.40;;
5904;SDS011;2978;42.012;24.880;2023-07-29T04:03:25;5.00;;;2.90;;
5904;SDS011;2978;42.012;24.880;2023-07-29T04:05:51;4.10;;;3.03;;
5904;SDS011;2978;42.012;24.880;2023-07-29T04:08:17;4.20;;;2.83;;
5904;SDS011;2978;42.012;24.880;2023-07-29T04:10:44;3.90;;;3.00;;
5904;SDS011;2978;42.012;24.880;2023-07-29T04:13:09;7.13;;;3.43;;
5904;SDS011;2978;42.012;24.880;2023-07-29T04:15:35;5.20;;;3.47;;
5904;SDS011;2978;42.012;24.880;2023-07-29T04:18:00;8.73;;;3.10;;
5904;SDS011;2978;42.012;24.880;2023-07-29T04:20:25;5.33;;;3.53;;
5904;SDS011;2978;42.012;24.880;2023-07-29T04:22:51;7.97;;;3.07;;
5904;SDS011;2978;42.012;24.880;2023-07-29T04:25:16;6.23;;;3.37;;
5904;SDS011;2978;42.012;24.880;2023-07-29T04:27:42;5.27;;;3.27;;
5904;SDS011;2978;42.012;24.880;2023-07-29T04:30:07;4.27;;;2.80;;
5904;SDS011;2978;42.012;24.880;2023-07-29T04:32:33;4.83;;;2.70;;
5904;SDS011;2978;42.012;24.880;2023-07-29T04:34:58;4.00;;;3.23;;
5904;SDS011;2978;42.012;24.880;2023-07-29T04:37:24;4.67;;;3.30;;
5904;SDS011;2978;42.012;24.880;2023-07-29T04:39:49;4.80;;;3.50;;
5904;SDS011;2978;42.012;24.880;2023-07-29T04:42:14;6.87;;;3.33;;
5904;SDS011;2978;42.012;24.880;2023-07-29T04:44:40;6.63;;;3.53;;
5904;SDS011;2978;42.012;24.880;2023-07-29T04:47:07;4.50;;;2.90;;
5904;SDS011;2978;42.012;24.880;2023-07-29T04:49:32;7.20;;;3.47;;
5904;SDS011;2978;42.012;24.880;2023-07-29T04:51:57;7.27;;;3.00;;
5904;SDS011;2978;42.012;24.880;2023-07-29T04:54:23;5.07;;;3.50;;
5904;SDS011;2978;42.012;24.880;2023-07-29T04:56:48;6.97;;;3.20;;
5904;SDS011;2978;42.012;24.880;2023-07-29T04:59:14;5.27;;;2.90;;
5904;SDS011;2978;42.012;24.880;2023-07-29T05:01:39;5.77;;;3.00;;
5904;SDS011;2978;42.012;24.880;2023-07-29T05:04:04;4.47;;;3.10;;
5904;SDS011;2978;42.012;24.880;2023-07-29T05:06:30;4.63;;;2.90;;
5904;SDS011;2978;42.012;24.880;2023-07-29T05:08:59;4.70;;;3.20;;
5904;SDS011;2978;42.012;24.880;2023-07-29T05:11:38;8.00;;;3.40;;
5904;SDS011;2978;42.012;24.880;2023-07-29T05:14:03;8.73;;;2.70;;
5904;SDS011;2978;42.012;24.880;2023-07-29T05:16:31;8.93;;;2.73;;
5904;SDS011;2978;42.012;24.880;2023-07-29T05:18:56;3.67;;;2.83;;
5904;SDS011;2978;42.012;24.880;2023-07-29T05:21:22;8.40;;;3.73;;
5904;SDS011;2978;42.012;24.880;2023-07-29T05:23:47;3.50;;;3.10;;
5904;SDS011;2978;42.012;24.880;2023-07-29T05:26:12;7.63;;;3.80;;
5904;SDS011;2978;42.012;24.880;2023-07-29T05:28:38;2.90;;;2.47;;
5904;SDS011;2978;42.012;24.880;2023-07-29T05:31:03;6.50;;;3.00;;
5904;SDS011;2978;42.012;24.880;2023-07-29T05:33:28;3.50;;;2.93;;
5904;SDS011;2978;42.012;24.880;2023-07-29T05:35:54;4.83;;;3.20;;
5904;SDS011;2978;42.012;24.880;2023-07-29T05:38:20;4.70;;;2.77;;
5904;SDS011;2978;42.012;24.880;2023-07-29T05:40:47;6.77;;;3.20;;
5904;SDS011;2978;42.012;24.880;2023-07-29T05:43:13;4.87;;;3.20;;
5904;SDS011;2978;42.012;24.880;2023-07-29T05:45:39;9.20;;;5.50;;
5904;SDS011;2978;42.012;24.880;2023-07-29T05:48:05;5.17;;;3.27;;
5904;SDS011;2978;42.012;24.880;2023-07-29T05:50:30;10.90;;;3.63;;
5904;SDS011;2978;42.012;24.880;2023-07-29T05:52:56;13.37;;;6.60;;
5904;SDS011;2978;42.012;24.880;2023-07-29T05:55:21;26.70;;;9.63;;
5904;SDS011;2978;42.012;24.880;2023-07-29T05:57:46;31.83;;;11.20;;
5904;SDS011;2978;42.012;24.880;2023-07-29T06:00:12;20.90;;;7.40;;
5904;SDS011;2978;42.012;24.880;2023-07-29T06:02:38;18.13;;;8.53;;
5904;SDS011;2978;42.012;24.880;2023-07-29T06:05:04;22.00;;;9.43;;
5904;SDS011;2978;42.012;24.880;2023-07-29T06:07:30;28.80;;;11.40;;
5904;SDS011;2978;42.012;24.880;2023-07-29T06:09:57;19.03;;;8.43;;
5904;SDS011;2978;42.012;24.880;2023-07-29T06:12:23;20.33;;;8.80;;
5904;SDS011;2978;42.012;24.880;2023-07-29T06:14:48;18.63;;;8.23;;
5904;SDS011;2978;42.012;24.880;2023-07-29T06:17:13;25.63;;;8.63;;
5904;SDS011;2978;42.012;24.880;2023-07-29T06:19:39;20.60;;;7.93;;
5904;SDS011;2978;42.012;24.880;2023-07-29T06:22:04;23.90;;;7.30;;
5904;SDS011;2978;42.012;24.880;2023-07-29T06:24:30;11.67;;;4.63;;
5904;SDS011;2978;42.012;24.880;2023-07-29T06:26:56;19.13;;;4.90;;
5904;SDS011;2978;42.012;24.880;2023-07-29T06:29:21;9.20;;;3.13;;
5904;SDS011;2978;42.012;24.880;2023-07-29T06:31:47;9.33;;;4.30;;
5904;SDS011;2978;42.012;24.880;2023-07-29T06:34:12;14.27;;;5.70;;
5904;SDS011;2978;42.012;24.880;2023-07-29T06:36:37;10.43;;;4.17;;
5904;SDS011;2978;42.012;24.880;2023-07-29T06:39:03;9.57;;;3.30;;
5904;SDS011;2978;42.012;24.880;2023-07-29T06:41:28;10.20;;;5.67;;
5904;SDS011;2978;42.012;24.880;2023-07-29T06:43:54;10.80;;;4.60;;
5904;SDS011;2978;42.012;24.880;2023-07-29T06:46:19;9.80;;;4.53;;
5904;SDS011;2978;42.012;24.880;2023-07-29T06:48:44;7.83;;;4.20;;
5904;SDS011;2978;42.012;24.880;2023-07-29T06:51:10;5.20;;;3.57;;
5904;SDS011;2978;42.012;24.880;2023-07-29T06:53:35;5.50;;;3.23;;
5904;SDS011;2978;42.012;24.880;2023-07-29T06:56:01;4.43;;;3.13;;
5904;SDS011;2978;42.012;24.880;2023-07-29T06:58:27;11.47;;;3.30;;
5904;SDS011;2978;42.012;24.880;2023-07-29T07:00:53;6.53;;;3.20;;
5904;SDS011;2978;42.012;24.880;2023-07-29T07:03:19;19.63;;;3.60;;
5904;SDS011;2978;42.012;24.880;2023-07-29T07:05:45;8.43;;;3.00;;
5904;SDS011;2978;42.012;24.880;2023-07-29T07:08:10;8.70;;;3.87;;
5904;SDS011;2978;42.012;24.880;2023-07-29T07:10:36;8.80;;;3.20;;
5904;SDS011;2978;42.012;24.880;2023-07-29T07:13:01;5.13;;;3.10;;
5904;SDS011;2978;42.012;24.880;2023-07-29T07:15:27;4.57;;;3.20;;
5904;SDS011;2978;42.012;24.880;2023-07-29T07:17:52;10.10;;;3.20;;
5904;SDS011;2978;42.012;24.880;2023-07-29T07:20:18;9.57;;;3.73;;
5904;SDS011;2978;42.012;24.880;2023-07-29T07:22:43;7.03;;;3.30;;
5904;SDS011;2978;42.012;24.880;2023-07-29T07:25:09;4.43;;;3.07;;
5904;SDS011;2978;42.012;24.880;2023-07-29T07:27:35;7.47;;;3.27;;
5904;SDS011;2978;42.012;24.880;2023-07-29T07:30:01;7.13;;;3.47;;
5904;SDS011;2978;42.012;24.880;2023-07-29T07:32:26;8.13;;;3.60;;
5904;SDS011;2978;42.012;24.880;2023-07-29T07:34:52;16.07;;;3.80;;
5904;SDS011;2978;42.012;24.880;2023-07-29T07:37:17;7.67;;;3.50;;
5904;SDS011;2978;42.012;24.880;2023-07-29T07:39:42;5.77;;;3.10;;
5904;SDS011;2978;42.012;24.880;2023-07-29T07:42:08;14.33;;;3.70;;
5904;SDS011;2978;42.012;24.880;2023-07-29T07:44:33;6.80;;;3.80;;
5904;SDS011;2978;42.012;24.880;2023-07-29T07:46:59;5.93;;;3.10;;
5904;SDS011;2978;42.012;24.880;2023-07-29T07:49:24;11.23;;;3.97;;
5904;SDS011;2978;42.012;24.880;2023-07-29T07:51:49;7.53;;;4.07;;
5904;SDS011;2978;42.012;24.880;2023-07-29T07:54:15;11.00;;;4.40;;
5904;SDS011;2978;42.012;24.880;2023-07-29T07:56:40;11.17;;;4.10;;
5904;SDS011;2978;42.012;24.880;2023-07-29T07:59:06;5.87;;;3.33;;
5904;SDS011;2978;42.012;24.880;2023-07-29T08:01:38;5.40;;;2.93;;
5904;SDS011;2978;42.012;24.880;2023-07-29T08:04:04;11.10;;;3.80;;
5904;SDS011;2978;42.012;24.880;2023-07-29T08:06:30;8.57;;;3.80;;
5904;SDS011;2978;42.012;24.880;2023-07-29T08:08:56;7.00;;;3.57;;
5904;SDS011;2978;42.012;24.880;2023-07-29T08:11:21;8.00;;;3.60;;
5904;SDS011;2978;42.012;24.880;2023-07-29T08:13:47;6.27;;;3.00;;
5904;SDS011;2978;42.012;24.880;2023-07-29T08:16:12;9.20;;;4.53;;
5904;SDS011;2978;42.012;24.880;2023-07-29T08:18:39;9.93;;;3.57;;
5904;SDS011;2978;42.012;24.880;2023-07-29T08:21:05;7.20;;;3.30;;
5904;SDS011;2978;42.012;24.880;2023-07-29T08:23:31;6.77;;;3.60;;
5904;SDS011;2978;42.012;24.880;2023-07-29T08:26:02;7.03;;;4.10;;
5904;SDS011;2978;42.012;24.880;2023-07-29T08:28:37;12.60;;;4.57;;
5904;SDS011;2978;42.012;24.880;2023-07-29T08:31:04;8.67;;;4.03;;
5904;SDS011;2978;42.012;24.880;2023-07-29T08:33:30;8.30;;;3.60;;
5904;SDS011;2978;42.012;24.880;2023-07-29T08:35:56;14.07;;;4.10;;
5904;SDS011;2978;42.012;24.880;2023-07-29T08:38:22;5.03;;;2.83;;
5904;SDS011;2978;42.012;24.880;2023-07-29T08:40:49;9.57;;;3.43;;
5904;SDS011;2978;42.012;24.880;2023-07-29T08:43:19;12.47;;;3.60;;
5904;SDS011;2978;42.012;24.880;2023-07-29T08:45:51;8.33;;;3.50;;
5904;SDS011;2978;42.012;24.880;2023-07-29T08:48:18;7.63;;;3.53;;
5904;SDS011;2978;42.012;24.880;2023-07-29T08:50:48;6.57;;;3.50;;
5904;SDS011;2978;42.012;24.880;2023-07-29T08:53:15;9.80;;;3.17;;
5904;SDS011;2978;42.012;24.880;2023-07-29T08:55:42;13.63;;;4.00;;
5904;SDS011;2978;42.012;24.880;2023-07-29T08:58:07;9.43;;;3.60;;
5904;SDS011;2978;42.012;24.880;2023-07-29T09:00:33;11.60;;;4.00;;
5904;SDS011;2978;42.012;24.880;2023-07-29T09:02:59;6.10;;;3.90;;
5904;SDS011;2978;42.012;24.880;2023-07-29T09:05:31;12.80;;;3.27;;
5904;SDS011;2978;42.012;24.880;2023-07-29T09:07:58;8.70;;;3.33;;
5904;SDS011;2978;42.012;24.880;2023-07-29T09:10:25;6.40;;;3.00;;
5904;SDS011;2978;42.012;24.880;2023-07-29T09:12:51;4.50;;;2.73;;
5904;SDS011;2978;42.012;24.880;2023-07-29T09:15:27;9.50;;;3.20;;
5904;SDS011;2978;42.012;24.880;2023-07-29T09:17:55;4.80;;;2.90;;
5904;SDS011;2978;42.012;24.880;2023-07-29T09:20:25;7.13;;;3.57;;
5904;SDS011;2978;42.012;24.880;2023-07-29T09:22:55;9.87;;;3.17;;
5904;SDS011;2978;42.012;24.880;2023-07-29T09:25:26;7.20;;;2.90;;
5904;SDS011;2978;42.012;24.880;2023-07-29T09:27:53;4.90;;;3.10;;
5904;SDS011;2978;42.012;24.880;2023-07-29T09:30:24;6.70;;;2.97;;
5904;SDS011;2978;42.012;24.880;2023-07-29T09:32:59;5.47;;;3.37;;
5904;SDS011;2978;42.012;24.880;2023-07-29T09:35:27;7.33;;;2.87;;
5904;SDS011;2978;42.012;24.880;2023-07-29T09:37:55;4.57;;;3.10;;
5904;SDS011;2978;42.012;24.880;2023-07-29T09:40:20;7.23;;;3.20;;
5904;SDS011;2978;42.012;24.880;2023-07-29T09:42:49;5.90;;;2.50;;
5904;SDS011;2978;42.012;24.880;2023-07-29T09:45:24;6.53;;;2.93;;
5904;SDS011;2978;42.012;24.880;2023-07-29T09:47:54;8.07;;;3.20;;
5904;SDS011;2978;42.012;24.880;2023-07-29T09:50:25;7.20;;;2.90;;
5904;SDS011;2978;42.012;24.880;2023-07-29T09:52:52;5.30;;;3.17;;
5904;SDS011;2978;42.012;24.880;2023-07-29T09:55:18;9.40;;;3.43;;
5904;SDS011;2978;42.012;24.880;2023-07-29T09:57:45;5.40;;;2.53;;
5904;SDS011;2978;42.012;24.880;2023-07-29T10:00:11;5.40;;;2.67;;
5904;SDS011;2978;42.012;24.880;2023-07-29T10:02:38;5.97;;;2.77;;
5904;SDS011;2978;42.012;24.880;2023-07-29T10:05:08;5.60;;;2.90;;
5904;SDS011;2978;42.012;24.880;2023-07-29T10:07:39;11.50;;;2.73;;
5904;SDS011;2978;42.012;24.880;2023-07-29T10:10:06;3.97;;;3.00;;
5904;SDS011;2978;42.012;24.880;2023-07-29T10:12:51;3.93;;;2.47;;
5904;SDS011;2978;42.012;24.880;2023-07-29T10:15:18;4.67;;;2.60;;
5904;SDS011;2978;42.012;24.880;2023-07-29T10:17:44;9.90;;;2.90;;
5904;SDS011;2978;42.012;24.880;2023-07-29T10:20:12;4.43;;;2.90;;
5904;SDS011;2978;42.012;24.880;2023-07-29T10:22:41;15.13;;;4.00;;
5904;SDS011;2978;42.012;24.880;2023-07-29T10:25:29;6.33;;;2.90;;
5904;SDS011;2978;42.012;24.880;2023-07-29T10:28:07;6.20;;;3.07;;
5904;SDS011;2978;42.012;24.880;2023-07-29T10:30:33;6.63;;;2.87;;
5904;SDS011;2978;42.012;24.880;2023-07-29T10:33:01;3.37;;;2.37;;
5904;SDS011;2978;42.012;24.880;2023-07-29T10:35:28;5.17;;;2.57;;
5904;SDS011;2978;42.012;24.880;2023-07-29T10:37:54;5.73;;;2.50;;
5904;SDS011;2978;42.012;24.880;2023-07-29T10:40:20;4.33;;;2.57;;
5904;SDS011;2978;42.012;24.880;2023-07-29T10:43:00;11.23;;;2.23;;
5904;SDS011;2978;42.012;24.880;2023-07-29T10:45:27;15.67;;;2.30;;
5904;SDS011;2978;42.012;24.880;2023-07-29T10:48:05;6.53;;;3.17;;
5904;SDS011;2978;42.012;24.880;2023-07-29T10:50:50;9.20;;;2.50;;
5904;SDS011;2978;42.012;24.880;2023-07-29T10:53:36;3.80;;;2.53;;
5904;SDS011;2978;42.012;24.880;2023-07-29T10:56:02;5.10;;;3.00;;
5904;SDS011;2978;42.012;24.880;2023-07-29T10:58:27;4.43;;;2.37;;
5904;SDS011;2978;42.012;24.880;2023-07-29T11:00:55;4.20;;;2.63;;
5904;SDS011;2978;42.012;24.880;2023-07-29T11:03:20;5.73;;;2.77;;
5904;SDS011;2978;42.012;24.880;2023-07-29T11:08:16;3.30;;;2.33;;
5904;SDS011;2978;42.012;24.880;2023-07-29T11:10:57;10.77;;;2.23;;
5904;SDS011;2978;42.012;24.880;2023-07-29T11:13:29;8.50;;;2.63;;
5904;SDS011;2978;42.012;24.880;2023-07-29T11:15:55;3.60;;;2.27;;
5904;SDS011;2978;42.012;24.880;2023-07-29T11:18:23;5.57;;;2.03;;
5904;SDS011;2978;42.012;24.880;2023-07-29T11:20:55;9.63;;;3.13;;
5904;SDS011;2978;42.012;24.880;2023-07-29T11:23:26;3.83;;;1.90;;
5904;SDS011;2978;42.012;24.880;2023-07-29T11:25:56;4.63;;;1.97;;
5904;SDS011;2978;42.012;24.880;2023-07-29T11:28:24;4.83;;;2.30;;
5904;SDS011;2978;42.012;24.880;2023-07-29T11:30:50;4.73;;;2.33;;
5904;SDS011;2978;42.012;24.880;2023-07-29T11:33:17;7.53;;;2.40;;
5904;SDS011;2978;42.012;24.880;2023-07-29T11:35:44;8.50;;;2.30;;
5904;SDS011;2978;42.012;24.880;2023-07-29T11:38:14;4.63;;;2.17;;
5904;SDS011;2978;42.012;24.880;2023-07-29T11:40:40;6.90;;;2.53;;
5904;SDS011;2978;42.012;24.880;2023-07-29T11:43:06;3.20;;;2.20;;
5904;SDS011;2978;42.012;24.880;2023-07-29T11:45:31;6.67;;;2.07;;
5904;SDS011;2978;42.012;24.880;2023-07-29T11:47:58;3.60;;;2.40;;
5904;SDS011;2978;42.012;24.880;2023-07-29T11:50:24;7.10;;;2.00;;
5904;SDS011;2978;42.012;24.880;2023-07-29T11:52:49;7.77;;;2.57;;
5904;SDS011;2978;42.012;24.880;2023-07-29T11:55:15;13.33;;;2.60;;
5904;SDS011;2978;42.012;24.880;2023-07-29T11:57:41;7.07;;;2.50;;
5904;SDS011;2978;42.012;24.880;2023-07-29T12:00:08;4.80;;;2.10;;
5904;SDS011;2978;42.012;24.880;2023-07-29T12:02:42;5.40;;;2.33;;
5904;SDS011;2978;42.012;24.880;2023-07-29T12:05:11;3.17;;;1.57;;
5904;SDS011;2978;42.012;24.880;2023-07-29T12:07:38;2.83;;;1.80;;
5904;SDS011;2978;42.012;24.880;2023-07-29T12:10:04;2.83;;;1.67;;
5904;SDS011;2978;42.012;24.880;2023-07-29T12:12:30;2.63;;;1.87;;
5904;SDS011;2978;42.012;24.880;2023-07-29T12:14:56;2.40;;;1.50;;
5904;SDS011;2978;42.012;24.880;2023-07-29T12:17:21;3.67;;;2.40;;
5904;SDS011;2978;42.012;24.880;2023-07-29T12:19:47;3.10;;;1.90;;
5904;SDS011;2978;42.012;24.880;2023-07-29T12:22:17;4.07;;;1.50;;
5904;SDS011;2978;42.012;24.880;2023-07-29T12:24:45;3.60;;;2.07;;
5904;SDS011;2978;42.012;24.880;2023-07-29T12:27:11;5.23;;;1.90;;
5904;SDS011;2978;42.012;24.880;2023-07-29T12:29:40;3.60;;;1.77;;
5904;SDS011;2978;42.012;24.880;2023-07-29T12:32:07;5.20;;;2.10;;
5904;SDS011;2978;42.012;24.880;2023-07-29T12:34:32;4.00;;;1.83;;
5904;SDS011;2978;42.012;24.880;2023-07-29T12:36:58;2.80;;;1.43;;
5904;SDS011;2978;42.012;24.880;2023-07-29T12:41:57;2.60;;;1.60;;
5904;SDS011;2978;42.012;24.880;2023-07-29T12:44:24;2.90;;;1.57;;
5904;SDS011;2978;42.012;24.880;2023-07-29T12:46:50;5.60;;;2.30;;
5904;SDS011;2978;42.012;24.880;2023-07-29T12:49:17;4.17;;;2.50;;
5904;SDS011;2978;42.012;24.880;2023-07-29T12:51:43;4.10;;;2.30;;
5904;SDS011;2978;42.012;24.880;2023-07-29T12:54:08;3.30;;;2.00;;
5904;SDS011;2978;42.012;24.880;2023-07-29T12:56:34;2.33;;;1.60;;
5904;SDS011;2978;42.012;24.880;2023-07-29T12:59:00;2.87;;;2.07;;
5904;SDS011;2978;42.012;24.880;2023-07-29T13:01:27;2.13;;;1.40;;
5904;SDS011;2978;42.012;24.880;2023-07-29T13:03:53;3.27;;;2.10;;
5904;SDS011;2978;42.012;24.880;2023-07-29T13:06:19;9.10;;;1.90;;
5904;SDS011;2978;42.012;24.880;2023-07-29T13:08:45;7.40;;;1.77;;
5904;SDS011;2978;42.012;24.880;2023-07-29T13:11:11;3.60;;;1.87;;
5904;SDS011;2978;42.012;24.880;2023-07-29T13:13:37;6.90;;;2.00;;
5904;SDS011;2978;42.012;24.880;2023-07-29T13:16:02;5.53;;;1.83;;
5904;SDS011;2978;42.012;24.880;2023-07-29T13:18:28;6.57;;;1.60;;
5904;SDS011;2978;42.012;24.880;2023-07-29T13:20:54;4.50;;;1.87;;
5904;SDS011;2978;42.012;24.880;2023-07-29T13:23:20;2.90;;;1.70;;
5904;SDS011;2978;42.012;24.880;2023-07-29T13:25:46;7.33;;;1.87;;
5904;SDS011;2978;42.012;24.880;2023-07-29T13:28:12;2.00;;;1.30;;
5904;SDS011;2978;42.012;24.880;2023-07-29T13:30:38;6.80;;;1.70;;
5904;SDS011;2978;42.012;24.880;2023-07-29T13:33:06;2.80;;;1.50;;
5904;SDS011;2978;42.012;24.880;2023-07-29T13:35:33;3.00;;;1.60;;
5904;SDS011;2978;42.012;24.880;2023-07-29T13:37:58;4.93;;;1.53;;
5904;SDS011;2978;42.012;24.880;2023-07-29T13:40:24;4.93;;;1.63;;
5904;SDS011;2978;42.012;24.880;2023-07-29T13:42:50;4.90;;;1.27;;
5904;SDS011;2978;42.012;24.880;2023-07-29T13:45:15;3.30;;;1.50;;
5904;SDS011;2978;42.012;24.880;2023-07-29T13:47:40;10.33;;;1.60;;
5904;SDS011;2978;42.012;24.880;2023-07-29T13:50:06;2.20;;;1.20;;
5904;SDS011;2978;42.012;24.880;2023-07-29T13:52:35;7.40;;;1.43;;
5904;SDS011;2978;42.012;24.880;2023-07-29T13:55:01;2.60;;;1.50;;
5904;SDS011;2978;42.012;24.880;2023-07-29T13:57:27;2.10;;;1.13;;
5904;SDS011;2978;42.012;24.880;2023-07-29T13:59:53;7.60;;;1.60;;
5904;SDS011;2978;42.012;24.880;2023-07-29T14:02:18;2.70;;;1.37;;
5904;SDS011;2978;42.012;24.880;2023-07-29T14:04:44;2.10;;;1.50;;
5904;SDS011;2978;42.012;24.880;2023-07-29T14:07:09;3.47;;;1.37;;
5904;SDS011;2978;42.012;24.880;2023-07-29T14:09:34;4.27;;;1.50;;
5904;SDS011;2978;42.012;24.880;2023-07-29T14:12:00;2.60;;;1.53;;
5904;SDS011;2978;42.012;24.880;2023-07-29T14:14:25;2.30;;;1.30;;
5904;SDS011;2978;42.012;24.880;2023-07-29T14:16:51;6.30;;;1.80;;
5904;SDS011;2978;42.012;24.880;2023-07-29T14:19:16;2.13;;;1.23;;
5904;SDS011;2978;42.012;24.880;2023-07-29T14:21:42;2.43;;;1.50;;
5904;SDS011;2978;42.012;24.880;2023-07-29T14:24:07;2.40;;;1.40;;
5904;SDS011;2978;42.012;24.880;2023-07-29T14:26:32;3.03;;;1.47;;
5904;SDS011;2978;42.012;24.880;2023-07-29T14:28:58;2.40;;;1.40;;
5904;SDS011;2978;42.012;24.880;2023-07-29T14:31:23;2.20;;;1.43;;
5904;SDS011;2978;42.012;24.880;2023-07-29T14:33:49;3.07;;;1.90;;
5904;SDS011;2978;42.012;24.880;2023-07-29T14:36:14;3.10;;;1.53;;
5904;SDS011;2978;42.012;24.880;2023-07-29T14:38:40;2.73;;;1.57;;
5904;SDS011;2978;42.012;24.880;2023-07-29T14:41:06;10.03;;;1.77;;
5904;SDS011;2978;42.012;24.880;2023-07-29T14:43:31;4.80;;;1.80;;
5904;SDS011;2978;42.012;24.880;2023-07-29T14:45:57;3.87;;;1.60;;
5904;SDS011;2978;42.012;24.880;2023-07-29T14:48:23;2.03;;;1.20;;
5904;SDS011;2978;42.012;24.880;2023-07-29T14:50:48;3.07;;;1.30;;
5904;SDS011;2978;42.012;24.880;2023-07-29T14:53:14;2.70;;;1.60;;
5904;SDS011;2978;42.012;24.880;2023-07-29T14:55:39;4.97;;;1.50;;
5904;SDS011;2978;42.012;24.880;2023-07-29T14:58:04;3.20;;;1.70;;
5904;SDS011;2978;42.012;24.880;2023-07-29T15:00:30;4.87;;;1.63;;
5904;SDS011;2978;42.012;24.880;2023-07-29T15:02:55;3.50;;;1.53;;
5904;SDS011;2978;42.012;24.880;2023-07-29T15:05:21;3.10;;;1.70;;